Archival Weather

Chicago O'Hare International

Chicago, Illinois (KORD)

Report from: Friday, December 2, 2022 10:51 AM CST
Current time: Friday, June 21, 2024 1:50 AM CDT

Current weather – Weather history – Daily summaries
Weather forecast

Temperature7.2°C (45.0°F)
Wind chill2.8°C (37.1°F)
Dew point-3.9°C (25.0°F)
Winds 17 kts (8.7 m/s, 19.6 mph) South-Southwest (200°)
Wind gusts 25 kts (12.9 m/s, 28.8 mph)
Peak wind 26 kts (13.4 m/s, 29.9 mph) South (180°) at 16:36
Visibility10 mi. (16.1 km)
Clouds Few clouds 4,200 ft. (1,280 m)
Ceiling: Broken clouds 25,000 ft. (7,620 m)
Altimeter29.87 in.Hg (1012 mB)
Relative humidity45 %
Density altitude-819 ft. (-249 m)
Sea-level pressure101.2 kPa (1012 mB, 29.88 in.Hg)
Remarks Automated weather observing station with precipitation discriminator
Flight conditions Visual Meteorological Conditions
Raw dataKORD 021651Z 20017G25KT 10SM FEW042 BKN250 07/M04 A2987 RMK AO2 PK WND 18026/1636 SLP119 T00721039
An error has occurred. This application may no longer respond until reloaded. Reload 🗙